createdAt,value
2024-01-24T00:00:14.142Z,58.20
2024-01-24T00:05:17.012Z,58.30
2024-01-24T00:10:18.779Z,58.20
2024-01-24T00:15:20.703Z,58.00
2024-01-24T00:20:22.515Z,57.80
2024-01-24T00:25:25.306Z,58.20
2024-01-24T00:30:27.114Z,57.50
2024-01-24T00:35:28.832Z,57.40
2024-01-24T00:40:30.589Z,57.40
2024-01-24T00:45:32.286Z,57.20
2024-01-24T00:50:35.755Z,57.80
2024-01-24T00:55:37.496Z,58.20
2024-01-24T01:00:39.455Z,58.40
2024-01-24T01:05:41.350Z,58.20
2024-01-24T01:10:43.183Z,58.10
2024-01-24T01:15:44.934Z,57.90
2024-01-24T01:20:47.521Z,57.90
2024-01-24T01:25:49.202Z,57.70
2024-01-24T01:30:51.128Z,57.60
2024-01-24T01:35:57.780Z,57.50
2024-01-24T01:41:02.818Z,57.40
2024-01-24T01:46:06.719Z,58.10
2024-01-24T01:51:08.575Z,58.50
2024-01-24T01:56:11.529Z,58.60
2024-01-24T02:06:33.693Z,58.40
2024-01-24T02:11:35.504Z,58.10
2024-01-24T02:16:37.254Z,57.80
2024-01-24T02:21:39.224Z,57.60
2024-01-24T02:26:40.852Z,57.50
2024-01-24T02:31:42.611Z,57.40
2024-01-24T02:36:44.388Z,57.30
2024-01-24T02:41:46.165Z,57.70
2024-01-24T02:46:47.949Z,58.20
2024-01-24T02:51:49.874Z,58.40
2024-01-24T02:56:51.580Z,58.20
2024-01-24T03:01:53.331Z,57.90
2024-01-24T03:06:56.642Z,57.80
2024-01-24T03:11:58.462Z,57.60
2024-01-24T03:17:00.367Z,57.50
2024-01-24T03:22:02.302Z,57.40
2024-01-24T03:27:04.097Z,57.20
2024-01-24T03:32:06.361Z,57.60
2024-01-24T03:37:08.063Z,57.80
2024-01-24T03:42:09.821Z,58.00
2024-01-24T03:47:11.740Z,57.90
2024-01-24T03:52:13.431Z,57.60
2024-01-24T03:57:15.134Z,57.40
2024-01-24T04:02:17.880Z,57.20
2024-01-24T04:07:19.817Z,57.10
2024-01-24T04:12:21.592Z,56.90
2024-01-24T04:17:23.579Z,56.70
2024-01-24T04:22:25.325Z,56.50
2024-01-24T04:27:27.050Z,56.90
2024-01-24T04:32:28.865Z,57.30
2024-01-24T04:37:30.544Z,57.50
2024-01-24T04:42:32.409Z,57.70
2024-01-24T04:47:34.641Z,57.40
2024-01-24T04:52:36.436Z,57.10
2024-01-24T04:57:38.213Z,56.80
2024-01-24T05:02:40.557Z,56.50
2024-01-24T05:07:42.468Z,56.30
2024-01-24T05:12:44.309Z,56.20
2024-01-24T05:17:46.152Z,56.20
2024-01-24T05:22:48.140Z,56.20
2024-01-24T05:27:50.506Z,56.40
2024-01-24T05:32:53.061Z,56.10
2024-01-24T05:37:54.881Z,56.80
2024-01-24T05:42:57.003Z,57.00
2024-01-24T05:47:59.031Z,57.00
2024-01-24T05:53:01.026Z,56.80
2024-01-24T05:58:03.262Z,56.50
2024-01-24T06:03:05.206Z,56.40
2024-01-24T06:08:07.137Z,56.30
2024-01-24T06:13:08.943Z,56.10
2024-01-24T06:18:10.789Z,56.10
2024-01-24T06:23:13.147Z,56.00
2024-01-24T06:28:14.872Z,56.20
2024-01-24T06:33:16.766Z,56.10
2024-01-24T06:38:18.881Z,55.90
2024-01-24T06:43:21.879Z,55.60
2024-01-24T06:48:23.841Z,55.50
2024-01-24T06:53:26.144Z,55.30
2024-01-24T06:58:28.035Z,55.30
2024-01-24T07:03:29.815Z,55.40
2024-01-24T07:08:31.945Z,55.50
2024-01-24T07:13:33.831Z,55.50
2024-01-24T07:18:35.829Z,55.70
2024-01-24T07:23:38.126Z,55.80
2024-01-24T07:28:39.886Z,56.00
2024-01-24T07:33:42.006Z,56.10
2024-01-24T07:38:43.811Z,56.20
2024-01-24T07:43:45.631Z,56.40
2024-01-24T07:48:47.551Z,56.50
2024-01-24T07:53:50.160Z,56.60
2024-01-24T07:58:52.018Z,56.70
2024-01-24T08:03:54.026Z,56.80
2024-01-24T08:08:55.939Z,56.90
2024-01-24T08:13:57.756Z,57.10
2024-01-24T08:19:00.187Z,57.10
2024-01-24T08:24:02.682Z,57.30
2024-01-24T08:29:04.488Z,57.50
2024-01-24T08:34:06.431Z,57.40
2024-01-24T08:39:08.308Z,57.50
2024-01-24T08:44:09.978Z,57.50
2024-01-24T08:49:14.187Z,57.60
2024-01-24T08:54:16.445Z,57.60
2024-01-24T08:59:18.249Z,57.70
2024-01-24T09:04:19.969Z,57.60
2024-01-24T09:09:22.363Z,57.70
2024-01-24T09:14:25.026Z,57.70
2024-01-24T09:19:27.504Z,57.70
2024-01-24T09:24:29.426Z,57.60
2024-01-24T09:29:31.649Z,57.50
2024-01-24T09:34:33.767Z,57.40
2024-01-24T09:39:35.777Z,57.20
2024-01-24T09:44:37.640Z,57.00
2024-01-24T09:49:39.869Z,56.80
2024-01-24T09:54:42.327Z,56.80
2024-01-24T09:59:44.576Z,56.80
2024-01-24T10:04:46.662Z,56.80
2024-01-24T10:09:48.976Z,56.90
2024-01-24T10:14:51.683Z,56.90
2024-01-24T10:19:53.551Z,56.80
2024-01-24T10:24:56.015Z,57.00
2024-01-24T10:29:58.544Z,57.00
2024-01-24T10:35:05.001Z,57.00
2024-01-24T10:40:07.725Z,57.20
2024-01-24T10:45:09.892Z,57.10
2024-01-24T10:50:17.439Z,57.20
2024-01-24T10:55:21.839Z,57.20
2024-01-24T11:00:24.178Z,57.20
2024-01-24T11:05:35.372Z,57.20
2024-01-24T11:10:38.344Z,57.30
2024-01-24T11:15:41.972Z,57.20
2024-01-24T11:20:50.465Z,57.30
2024-01-24T11:25:52.208Z,57.30
2024-01-24T11:30:54.476Z,57.20
2024-01-24T11:35:56.940Z,58.00
2024-01-24T11:41:01.351Z,57.00
2024-01-24T11:46:07.420Z,57.00
2024-01-24T11:51:10.229Z,57.00
2024-01-24T11:56:13.796Z,57.00
2024-01-24T12:01:16.676Z,57.00
2024-01-24T12:06:19.076Z,57.10
2024-01-24T12:11:21.549Z,57.00
2024-01-24T12:16:25.059Z,57.10
2024-01-24T12:21:28.589Z,57.10
2024-01-24T12:26:31.433Z,57.20
2024-01-24T12:31:33.574Z,57.20
2024-01-24T12:36:36.206Z,57.10
2024-01-24T12:41:40.338Z,57.40
2024-01-24T12:46:42.179Z,57.40
2024-01-24T12:51:44.285Z,57.40
2024-01-24T12:56:47.883Z,57.50
2024-01-24T13:01:50.864Z,57.50
2024-01-24T13:06:53.339Z,57.60
2024-01-24T13:11:55.352Z,57.60
2024-01-24T13:16:59.072Z,57.60
2024-01-24T13:22:00.958Z,57.70
2024-01-24T13:27:03.187Z,57.50
2024-01-24T13:32:05.126Z,57.30
2024-01-24T13:37:07.310Z,57.20
2024-01-24T13:42:09.278Z,57.10
2024-01-24T13:47:11.475Z,57.10
2024-01-24T13:52:13.441Z,57.10
2024-01-24T13:57:15.271Z,57.10
2024-01-24T14:02:19.310Z,58.10
2024-01-24T14:07:21.406Z,57.20
2024-01-24T14:12:23.296Z,57.20
2024-01-24T14:17:25.031Z,57.30
2024-01-24T14:22:26.946Z,57.30
2024-01-24T14:27:28.763Z,57.30
2024-01-24T14:32:30.744Z,57.30
2024-01-24T14:37:33.675Z,57.30
2024-01-24T14:42:36.589Z,57.50
2024-01-24T14:47:38.644Z,57.50
2024-01-24T14:52:40.462Z,57.30
2024-01-24T14:57:43.071Z,57.20
2024-01-24T15:02:44.904Z,57.10
2024-01-24T15:07:46.830Z,57.10
2024-01-24T15:12:49.343Z,57.00
2024-01-24T15:17:53.144Z,57.00
2024-01-24T15:22:55.338Z,57.00
2024-01-24T15:27:57.126Z,57.00
2024-01-24T15:32:59.006Z,57.00
2024-01-24T15:38:00.873Z,57.10
2024-01-24T15:43:03.839Z,57.10
2024-01-24T15:48:06.746Z,57.20
2024-01-24T15:53:08.814Z,57.20
2024-01-24T15:58:10.800Z,57.30
2024-01-24T16:03:13.468Z,57.20
2024-01-24T16:08:18.968Z,57.50
2024-01-24T16:13:23.368Z,57.30
2024-01-24T16:18:25.506Z,57.30
2024-01-24T16:23:27.279Z,57.10
2024-01-24T16:28:29.471Z,56.70
2024-01-24T16:33:31.707Z,56.80
2024-01-24T16:38:33.561Z,57.20
2024-01-24T16:43:37.238Z,57.40
2024-01-24T16:48:39.562Z,57.50
2024-01-24T16:53:41.519Z,57.40
2024-01-24T16:58:43.448Z,57.50
2024-01-24T17:03:46.030Z,59.80
2024-01-24T17:08:47.960Z,59.00
2024-01-24T17:13:49.692Z,60.70
2024-01-24T17:18:51.974Z,64.30
2024-01-24T17:23:53.868Z,64.40
2024-01-24T17:28:57.984Z,64.30
2024-01-24T17:34:00.436Z,63.50
2024-01-24T17:39:05.466Z,63.30
2024-01-24T17:44:07.963Z,62.20
2024-01-24T17:49:09.907Z,61.90
2024-01-24T17:54:11.806Z,61.70
2024-01-24T17:59:14.756Z,61.50
2024-01-24T18:04:16.652Z,62.20
2024-01-24T18:09:19.385Z,61.60
2024-01-24T18:14:21.110Z,61.30
2024-01-24T18:19:22.998Z,61.30
2024-01-24T18:24:24.781Z,61.20
2024-01-24T18:29:26.648Z,61.10
2024-01-24T18:34:31.220Z,60.70
2024-01-24T18:39:33.590Z,60.20
2024-01-24T18:44:35.337Z,60.00
2024-01-24T18:49:37.286Z,59.90
2024-01-24T18:54:39.486Z,60.40
2024-01-24T18:59:41.357Z,60.60
2024-01-24T19:04:43.255Z,60.10
2024-01-24T19:09:45.660Z,59.80
2024-01-24T19:14:47.569Z,59.70
2024-01-24T19:19:49.873Z,59.80
2024-01-24T19:24:52.883Z,59.90
2024-01-24T19:29:55.043Z,59.70
2024-01-24T19:34:59.595Z,59.70
2024-01-24T19:40:01.576Z,60.60
2024-01-24T19:45:04.690Z,59.80
2024-01-24T19:50:08.793Z,59.90
2024-01-24T19:55:10.851Z,59.60
2024-01-24T20:00:13.856Z,59.30
2024-01-24T20:05:15.729Z,59.10
2024-01-24T20:10:17.747Z,59.00
2024-01-24T20:15:20.010Z,59.10
2024-01-24T20:20:24.246Z,59.40
2024-01-24T20:25:26.082Z,59.10
2024-01-24T20:30:28.045Z,59.00
2024-01-24T20:35:29.941Z,59.20
2024-01-24T20:40:32.022Z,59.40
2024-01-24T20:45:33.937Z,59.40
2024-01-24T20:50:35.727Z,59.40
2024-01-24T20:55:40.561Z,59.60
2024-01-24T21:00:42.463Z,59.70
2024-01-24T21:05:45.701Z,59.90
2024-01-24T21:10:52.561Z,60.00
2024-01-24T21:16:03.952Z,60.30
2024-01-24T21:21:06.097Z,60.40
2024-01-24T21:26:08.048Z,60.50
2024-01-24T21:31:10.736Z,60.60
2024-01-24T21:36:12.556Z,61.60
2024-01-24T21:41:14.347Z,61.30
2024-01-24T21:46:16.186Z,61.30
2024-01-24T21:51:17.998Z,61.50
2024-01-24T21:56:19.814Z,61.60
2024-01-24T22:01:22.677Z,61.90
2024-01-24T22:06:24.507Z,61.90
2024-01-24T22:11:29.148Z,62.20
2024-01-24T22:16:30.872Z,62.40
2024-01-24T22:21:33.334Z,62.30
2024-01-24T22:26:35.327Z,62.10
2024-01-24T22:31:37.259Z,62.20
2024-01-24T22:36:39.278Z,62.20
2024-01-24T22:41:42.636Z,62.10
2024-01-24T22:46:44.763Z,62.10
2024-01-24T22:51:46.704Z,62.10
2024-01-24T22:56:48.853Z,62.00
2024-01-24T23:01:50.644Z,61.90
2024-01-24T23:06:52.901Z,61.90
2024-01-24T23:11:54.941Z,61.90
2024-01-24T23:16:56.699Z,61.60
2024-01-24T23:21:58.519Z,61.20
2024-01-24T23:27:00.375Z,60.80
2024-01-24T23:32:02.347Z,60.30
2024-01-24T23:37:04.296Z,60.10
2024-01-24T23:42:06.116Z,59.80
2024-01-24T23:47:07.868Z,59.50
2024-01-24T23:52:09.870Z,59.10
2024-01-24T23:57:12.143Z,59.00
